<?xml version="1.0" encoding="UTF-8" standalone="no" ?>
<gpx xmlns="http://www.topografix.com/GPX/1/1" xmlns:xsi="http://www.w3.org/2001/XMLSchema-instance" xsi:schemaLocation="http://www.topografix.com/GPX/1/1 http://www.topografix.com/GPX/1/1/gpx.xsd" version="1.1" creator="VisuGPX - https://www.visugpx.com">
  <metadata>
    <name>Boucle bassia</name>
  </metadata>
  <wpt lat="43.00845" lon="0.32568">
    <ele>806</ele>
    <name><![CDATA[Pla du Moula ]]></name>
  </wpt>
  <wpt lat="43.01251" lon="0.31242">
    <ele>909</ele>
    <name><![CDATA[Fin de piste, partir à gauche]]></name>
  </wpt>
  <wpt lat="43.0083" lon="0.30692">
    <ele>1026</ele>
    <name><![CDATA[Col de Couradabat]]></name>
  </wpt>
  <wpt lat="43.00342" lon="0.30247">
    <ele>1127</ele>
    <name><![CDATA[A gauche, par la piste]]></name>
  </wpt>
  <wpt lat="43.00057" lon="0.31308">
    <ele>1161</ele>
    <name><![CDATA[Col des Estrets]]></name>
  </wpt>
  <wpt lat="42.99705" lon="0.3121">
    <ele>1210</ele>
    <name><![CDATA[Plein Ouest ]]></name>
  </wpt>
  <wpt lat="42.99276" lon="0.31239">
    <ele>1154</ele>
    <name><![CDATA[Bifurcation, suivre le chemin à flanc]]></name>
  </wpt>
  <wpt lat="43.00022" lon="0.32426">
    <ele>1144</ele>
    <name><![CDATA[Bifurcation, à gauche]]></name>
  </wpt>
  <wpt lat="43.00613" lon="0.31921">
    <ele>934</ele>
    <name><![CDATA[Large piste, prendre à droite]]></name>
  </wpt>
  <wpt lat="43.00843" lon="0.32588">
    <ele>810</ele>
    <name><![CDATA[Pla du Moula ]]></name>
  </wpt>
  <trk>
    <name><![CDATA[Dans les traces du Pacte des Loups]]></name>
    <trkseg>
      <trkpt lat="43.00845" lon="0.32568">
        <ele>806</ele>
        <time>2016-05-12T09:47:58+02:00</time>
      </trkpt>
      <trkpt lat="43.00846" lon="0.32567">
        <ele>806</ele>
        <time>2016-05-12T09:48:01+02:00</time>
      </trkpt>
      <trkpt lat="43.00849" lon="0.32559">
        <ele>823</ele>
        <time>2016-05-12T09:48:39+02:00</time>
      </trkpt>
      <trkpt lat="43.00839" lon="0.3252">
        <ele>813</ele>
        <time>2016-05-12T09:49:51+02:00</time>
      </trkpt>
      <trkpt lat="43.00829" lon="0.32471">
        <ele>814</ele>
        <time>2016-05-12T09:50:19+02:00</time>
      </trkpt>
      <trkpt lat="43.00823" lon="0.32423">
        <ele>813</ele>
        <time>2016-05-12T09:50:48+02:00</time>
      </trkpt>
      <trkpt lat="43.0081" lon="0.32377">
        <ele>813</ele>
        <time>2016-05-12T09:51:20+02:00</time>
      </trkpt>
      <trkpt lat="43.00789" lon="0.32337">
        <ele>816</ele>
        <time>2016-05-12T09:51:49+02:00</time>
      </trkpt>
      <trkpt lat="43.00771" lon="0.32292">
        <ele>817</ele>
        <time>2016-05-12T09:52:20+02:00</time>
      </trkpt>
      <trkpt lat="43.00757" lon="0.32246">
        <ele>818</ele>
        <time>2016-05-12T09:52:50+02:00</time>
      </trkpt>
      <trkpt lat="43.00752" lon="0.32193">
        <ele>823</ele>
        <time>2016-05-12T09:53:22+02:00</time>
      </trkpt>
      <trkpt lat="43.00759" lon="0.32139">
        <ele>821</ele>
        <time>2016-05-12T09:54:01+02:00</time>
      </trkpt>
      <trkpt lat="43.00769" lon="0.32087">
        <ele>826</ele>
        <time>2016-05-12T09:54:37+02:00</time>
      </trkpt>
      <trkpt lat="43.00758" lon="0.32044">
        <ele>827</ele>
        <time>2016-05-12T09:55:14+02:00</time>
      </trkpt>
      <trkpt lat="43.00719" lon="0.32043">
        <ele>837</ele>
        <time>2016-05-12T09:55:52+02:00</time>
      </trkpt>
      <trkpt lat="43.00696" lon="0.32023">
        <ele>845</ele>
        <time>2016-05-12T09:56:38+02:00</time>
      </trkpt>
      <trkpt lat="43.00715" lon="0.31977">
        <ele>843</ele>
        <time>2016-05-12T09:57:21+02:00</time>
      </trkpt>
      <trkpt lat="43.00742" lon="0.31931">
        <ele>861</ele>
        <time>2016-05-12T10:00:39+02:00</time>
      </trkpt>
      <trkpt lat="43.00761" lon="0.31889">
        <ele>872</ele>
        <time>2016-05-12T10:01:52+02:00</time>
      </trkpt>
      <trkpt lat="43.00781" lon="0.31843">
        <ele>877</ele>
        <time>2016-05-12T10:02:25+02:00</time>
      </trkpt>
      <trkpt lat="43.00806" lon="0.31803">
        <ele>880</ele>
        <time>2016-05-12T10:03:13+02:00</time>
      </trkpt>
      <trkpt lat="43.00827" lon="0.31766">
        <ele>884</ele>
        <time>2016-05-12T10:04:36+02:00</time>
      </trkpt>
      <trkpt lat="43.00852" lon="0.31728">
        <ele>881</ele>
        <time>2016-05-12T10:05:09+02:00</time>
      </trkpt>
      <trkpt lat="43.00882" lon="0.31699">
        <ele>880</ele>
        <time>2016-05-12T10:05:41+02:00</time>
      </trkpt>
      <trkpt lat="43.00894" lon="0.3165">
        <ele>882</ele>
        <time>2016-05-12T10:06:14+02:00</time>
      </trkpt>
      <trkpt lat="43.0089" lon="0.31597">
        <ele>879</ele>
        <time>2016-05-12T10:06:49+02:00</time>
      </trkpt>
      <trkpt lat="43.00886" lon="0.31537">
        <ele>871</ele>
        <time>2016-05-12T10:07:26+02:00</time>
      </trkpt>
      <trkpt lat="43.00885" lon="0.3148">
        <ele>869</ele>
        <time>2016-05-12T10:07:58+02:00</time>
      </trkpt>
      <trkpt lat="43.00881" lon="0.31423">
        <ele>873</ele>
        <time>2016-05-12T10:08:32+02:00</time>
      </trkpt>
      <trkpt lat="43.00882" lon="0.31366">
        <ele>876</ele>
        <time>2016-05-12T10:09:13+02:00</time>
      </trkpt>
      <trkpt lat="43.009" lon="0.3132">
        <ele>892</ele>
        <time>2016-05-12T10:12:20+02:00</time>
      </trkpt>
      <trkpt lat="43.00934" lon="0.31296">
        <ele>892</ele>
        <time>2016-05-12T10:13:10+02:00</time>
      </trkpt>
      <trkpt lat="43.00974" lon="0.31278">
        <ele>894</ele>
        <time>2016-05-12T10:13:47+02:00</time>
      </trkpt>
      <trkpt lat="43.0102" lon="0.31251">
        <ele>904</ele>
        <time>2016-05-12T10:14:35+02:00</time>
      </trkpt>
      <trkpt lat="43.01054" lon="0.31289">
        <ele>910</ele>
        <time>2016-05-12T10:15:27+02:00</time>
      </trkpt>
      <trkpt lat="43.0109" lon="0.31295">
        <ele>912</ele>
        <time>2016-05-12T10:16:05+02:00</time>
      </trkpt>
      <trkpt lat="43.01129" lon="0.31255">
        <ele>916</ele>
        <time>2016-05-12T10:16:50+02:00</time>
      </trkpt>
      <trkpt lat="43.01179" lon="0.31243">
        <ele>916</ele>
        <time>2016-05-12T10:17:27+02:00</time>
      </trkpt>
      <trkpt lat="43.01219" lon="0.31227">
        <ele>913</ele>
        <time>2016-05-12T10:17:59+02:00</time>
      </trkpt>
      <trkpt lat="43.01251" lon="0.31242">
        <ele>909</ele>
        <time>2016-05-12T10:18:39+02:00</time>
      </trkpt>
      <trkpt lat="43.01265" lon="0.31211">
        <ele>910</ele>
        <time>2016-05-12T10:22:26+02:00</time>
      </trkpt>
      <trkpt lat="43.01293" lon="0.31176">
        <ele>921</ele>
        <time>2016-05-12T10:23:18+02:00</time>
      </trkpt>
      <trkpt lat="43.0128" lon="0.3113">
        <ele>939</ele>
        <time>2016-05-12T10:24:27+02:00</time>
      </trkpt>
      <trkpt lat="43.01255" lon="0.31083">
        <ele>960</ele>
        <time>2016-05-12T10:26:35+02:00</time>
      </trkpt>
      <trkpt lat="43.01181" lon="0.31076">
        <ele>952</ele>
        <time>2016-05-12T10:29:02+02:00</time>
      </trkpt>
      <trkpt lat="43.01052" lon="0.30999">
        <ele>984</ele>
        <time>2016-05-12T10:32:06+02:00</time>
      </trkpt>
      <trkpt lat="43.00986" lon="0.30949">
        <ele>1016</ele>
        <time>2016-05-12T10:33:57+02:00</time>
      </trkpt>
      <trkpt lat="43.00968" lon="0.30912">
        <ele>1043</ele>
        <time>2016-05-12T10:40:25+02:00</time>
      </trkpt>
      <trkpt lat="43.00953" lon="0.30874">
        <ele>1044</ele>
        <time>2016-05-12T10:41:14+02:00</time>
      </trkpt>
      <trkpt lat="43.00937" lon="0.30831">
        <ele>1040</ele>
        <time>2016-05-12T10:41:52+02:00</time>
      </trkpt>
      <trkpt lat="43.00908" lon="0.30797">
        <ele>1036</ele>
        <time>2016-05-12T10:42:24+02:00</time>
      </trkpt>
      <trkpt lat="43.00881" lon="0.30763">
        <ele>1035</ele>
        <time>2016-05-12T10:42:55+02:00</time>
      </trkpt>
      <trkpt lat="43.00857" lon="0.30723">
        <ele>1027</ele>
        <time>2016-05-12T10:44:09+02:00</time>
      </trkpt>
      <trkpt lat="43.0083" lon="0.30692">
        <ele>1026</ele>
        <time>2016-05-12T10:45:05+02:00</time>
      </trkpt>
      <trkpt lat="43.00808" lon="0.30715">
        <ele>1027</ele>
        <time>2016-05-12T10:48:07+02:00</time>
      </trkpt>
      <trkpt lat="43.00781" lon="0.30676">
        <ele>1026</ele>
        <time>2016-05-12T10:49:44+02:00</time>
      </trkpt>
      <trkpt lat="43.00754" lon="0.30637">
        <ele>1030</ele>
        <time>2016-05-12T11:02:00+02:00</time>
      </trkpt>
      <trkpt lat="43.00676" lon="0.30524">
        <ele>1085</ele>
      </trkpt>
      <trkpt lat="43.0061" lon="0.30459">
        <ele>1104</ele>
      </trkpt>
      <trkpt lat="43.00516" lon="0.30417">
        <ele>1102</ele>
        <time>2016-05-12T11:10:24+02:00</time>
      </trkpt>
      <trkpt lat="43.00453" lon="0.30322">
        <ele>1137</ele>
        <time>2016-05-12T11:12:10+02:00</time>
      </trkpt>
      <trkpt lat="43.00379" lon="0.30238">
        <ele>1136</ele>
        <time>2016-05-12T11:13:49+02:00</time>
      </trkpt>
      <trkpt lat="43.00342" lon="0.30247">
        <ele>1127</ele>
        <time>2016-05-12T11:16:09+02:00</time>
      </trkpt>
      <trkpt lat="43.00312" lon="0.30305">
        <ele>1133</ele>
        <time>2016-05-12T11:17:18+02:00</time>
      </trkpt>
      <trkpt lat="43.00288" lon="0.30351">
        <ele>1129</ele>
        <time>2016-05-12T11:17:54+02:00</time>
      </trkpt>
      <trkpt lat="43.00263" lon="0.30394">
        <ele>1126</ele>
        <time>2016-05-12T11:18:26+02:00</time>
      </trkpt>
      <trkpt lat="43.00242" lon="0.30442">
        <ele>1119</ele>
        <time>2016-05-12T11:19:00+02:00</time>
      </trkpt>
      <trkpt lat="43.00245" lon="0.305">
        <ele>1114</ele>
        <time>2016-05-12T11:19:35+02:00</time>
      </trkpt>
      <trkpt lat="43.0024" lon="0.30562">
        <ele>1112</ele>
        <time>2016-05-12T11:20:28+02:00</time>
      </trkpt>
      <trkpt lat="43.00231" lon="0.30628">
        <ele>1112</ele>
        <time>2016-05-12T11:21:13+02:00</time>
      </trkpt>
      <trkpt lat="43.00209" lon="0.30683">
        <ele>1106</ele>
        <time>2016-05-12T11:21:51+02:00</time>
      </trkpt>
      <trkpt lat="43.00188" lon="0.30746">
        <ele>1107</ele>
        <time>2016-05-12T11:22:47+02:00</time>
      </trkpt>
      <trkpt lat="43.00182" lon="0.30801">
        <ele>1102</ele>
        <time>2016-05-12T11:23:20+02:00</time>
      </trkpt>
      <trkpt lat="43.00169" lon="0.30862">
        <ele>1104</ele>
        <time>2016-05-12T11:24:15+02:00</time>
      </trkpt>
      <trkpt lat="43.00155" lon="0.30918">
        <ele>1116</ele>
        <time>2016-05-12T11:25:04+02:00</time>
      </trkpt>
      <trkpt lat="43.00147" lon="0.30971">
        <ele>1115</ele>
        <time>2016-05-12T11:25:40+02:00</time>
      </trkpt>
      <trkpt lat="43.00142" lon="0.31028">
        <ele>1124</ele>
        <time>2016-05-12T11:26:32+02:00</time>
      </trkpt>
      <trkpt lat="43.00144" lon="0.31078">
        <ele>1128</ele>
        <time>2016-05-12T11:27:12+02:00</time>
      </trkpt>
      <trkpt lat="43.00126" lon="0.31124">
        <ele>1135</ele>
        <time>2016-05-12T11:27:50+02:00</time>
      </trkpt>
      <trkpt lat="43.00111" lon="0.31182">
        <ele>1141</ele>
        <time>2016-05-12T11:28:34+02:00</time>
      </trkpt>
      <trkpt lat="43.00091" lon="0.31227">
        <ele>1147</ele>
        <time>2016-05-12T11:29:25+02:00</time>
      </trkpt>
      <trkpt lat="43.00069" lon="0.31273">
        <ele>1149</ele>
        <time>2016-05-12T11:30:04+02:00</time>
      </trkpt>
      <trkpt lat="43.00057" lon="0.31308">
        <ele>1161</ele>
        <time>2016-05-12T11:31:34+02:00</time>
      </trkpt>
      <trkpt lat="43.00023" lon="0.31276">
        <ele>1166</ele>
        <time>2016-05-12T11:32:16+02:00</time>
      </trkpt>
      <trkpt lat="42.99992" lon="0.3124">
        <ele>1169</ele>
        <time>2016-05-12T11:33:00+02:00</time>
      </trkpt>
      <trkpt lat="42.99958" lon="0.31198">
        <ele>1172</ele>
        <time>2016-05-12T11:33:37+02:00</time>
      </trkpt>
      <trkpt lat="42.99928" lon="0.3116">
        <ele>1176</ele>
        <time>2016-05-12T11:34:09+02:00</time>
      </trkpt>
      <trkpt lat="42.99896" lon="0.31126">
        <ele>1180</ele>
        <time>2016-05-12T11:34:45+02:00</time>
      </trkpt>
      <trkpt lat="42.99856" lon="0.31133">
        <ele>1188</ele>
        <time>2016-05-12T11:35:36+02:00</time>
      </trkpt>
      <trkpt lat="42.99805" lon="0.31177">
        <ele>1192</ele>
        <time>2016-05-12T11:37:22+02:00</time>
      </trkpt>
      <trkpt lat="42.9977" lon="0.31179">
        <ele>1196</ele>
        <time>2016-05-12T11:39:33+02:00</time>
      </trkpt>
      <trkpt lat="42.99736" lon="0.31184">
        <ele>1203</ele>
        <time>2016-05-12T11:40:08+02:00</time>
      </trkpt>
      <trkpt lat="42.99705" lon="0.3121">
        <ele>1210</ele>
        <time>2016-05-12T11:40:58+02:00</time>
      </trkpt>
      <trkpt lat="42.99689" lon="0.31196">
        <ele>1210</ele>
        <time>2016-05-12T11:42:22+02:00</time>
      </trkpt>
      <trkpt lat="42.99686" lon="0.31146">
        <ele>1208</ele>
        <time>2016-05-12T11:42:51+02:00</time>
      </trkpt>
      <trkpt lat="42.99664" lon="0.31117">
        <ele>1215</ele>
        <time>2016-05-12T11:43:34+02:00</time>
      </trkpt>
      <trkpt lat="42.99654" lon="0.31068">
        <ele>1224</ele>
        <time>2016-05-12T11:44:40+02:00</time>
      </trkpt>
      <trkpt lat="42.99639" lon="0.31026">
        <ele>1231</ele>
        <time>2016-05-12T11:45:17+02:00</time>
      </trkpt>
      <trkpt lat="42.99625" lon="0.30979">
        <ele>1233</ele>
        <time>2016-05-12T11:45:48+02:00</time>
      </trkpt>
      <trkpt lat="42.99612" lon="0.30932">
        <ele>1234</ele>
        <time>2016-05-12T11:46:25+02:00</time>
      </trkpt>
      <trkpt lat="42.99601" lon="0.30893">
        <ele>1189</ele>
        <time>2016-05-12T11:47:10+02:00</time>
      </trkpt>
      <trkpt lat="42.99557" lon="0.30889">
        <ele>1197</ele>
        <time>2016-05-12T11:47:44+02:00</time>
      </trkpt>
      <trkpt lat="42.9952" lon="0.30926">
        <ele>1232</ele>
        <time>2016-05-12T11:48:42+02:00</time>
      </trkpt>
      <trkpt lat="42.99485" lon="0.30929">
        <ele>1228</ele>
        <time>2016-05-12T11:49:34+02:00</time>
      </trkpt>
      <trkpt lat="42.99472" lon="0.30889">
        <ele>1219</ele>
        <time>2016-05-12T11:50:37+02:00</time>
      </trkpt>
      <trkpt lat="42.99458" lon="0.30867">
        <ele>1208</ele>
        <time>2016-05-12T11:52:08+02:00</time>
      </trkpt>
      <trkpt lat="42.99426" lon="0.30916">
        <ele>1193</ele>
        <time>2016-05-12T11:54:24+02:00</time>
      </trkpt>
      <trkpt lat="42.994" lon="0.30962">
        <ele>1186</ele>
        <time>2016-05-12T11:55:39+02:00</time>
      </trkpt>
      <trkpt lat="42.99361" lon="0.3101">
        <ele>1168</ele>
        <time>2016-05-12T11:58:32+02:00</time>
      </trkpt>
      <trkpt lat="42.99322" lon="0.31027">
        <ele>1144</ele>
        <time>2016-05-12T12:00:57+02:00</time>
      </trkpt>
      <trkpt lat="42.99295" lon="0.31063">
        <ele>1138</ele>
        <time>2016-05-12T12:02:03+02:00</time>
      </trkpt>
      <trkpt lat="42.99298" lon="0.31135">
        <ele>1147</ele>
        <time>2016-05-12T12:03:18+02:00</time>
      </trkpt>
      <trkpt lat="42.99276" lon="0.31239">
        <ele>1154</ele>
        <time>2016-05-12T12:05:02+02:00</time>
      </trkpt>
      <trkpt lat="42.99263" lon="0.31296">
        <ele>1196</ele>
        <time>2016-05-12T12:05:45+02:00</time>
      </trkpt>
      <trkpt lat="42.99254" lon="0.31341">
        <ele>1203</ele>
        <time>2016-05-12T12:06:23+02:00</time>
      </trkpt>
      <trkpt lat="42.99243" lon="0.31411">
        <ele>1193</ele>
        <time>2016-05-12T12:10:32+02:00</time>
      </trkpt>
      <trkpt lat="42.99232" lon="0.31468">
        <ele>1199</ele>
        <time>2016-05-12T12:11:24+02:00</time>
      </trkpt>
      <trkpt lat="42.99219" lon="0.31519">
        <ele>1211</ele>
        <time>2016-05-12T12:12:06+02:00</time>
      </trkpt>
      <trkpt lat="42.99202" lon="0.31565">
        <ele>1222</ele>
        <time>2016-05-12T12:12:47+02:00</time>
      </trkpt>
      <trkpt lat="42.99186" lon="0.31604">
        <ele>1231</ele>
        <time>2016-05-12T12:13:58+02:00</time>
      </trkpt>
      <trkpt lat="42.99189" lon="0.31615">
        <ele>1248</ele>
        <time>2016-05-12T12:15:30+02:00</time>
      </trkpt>
      <trkpt lat="42.99197" lon="0.31622">
        <ele>1254</ele>
        <time>2016-05-12T12:17:18+02:00</time>
      </trkpt>
      <trkpt lat="42.99196" lon="0.31629">
        <ele>1243</ele>
        <time>2016-05-12T12:20:49+02:00</time>
      </trkpt>
      <trkpt lat="42.99188" lon="0.31629">
        <ele>1252</ele>
        <time>2016-05-12T13:10:30+02:00</time>
      </trkpt>
      <trkpt lat="42.99181" lon="0.31633">
        <ele>1235</ele>
        <time>2016-05-12T13:18:42+02:00</time>
      </trkpt>
      <trkpt lat="42.99154" lon="0.3167">
        <ele>1230</ele>
        <time>2016-05-12T13:19:46+02:00</time>
      </trkpt>
      <trkpt lat="42.9916" lon="0.31714">
        <ele>1233</ele>
        <time>2016-05-12T13:21:07+02:00</time>
      </trkpt>
      <trkpt lat="42.99177" lon="0.31758">
        <ele>1228</ele>
        <time>2016-05-12T13:21:39+02:00</time>
      </trkpt>
      <trkpt lat="42.99194" lon="0.31805">
        <ele>1223</ele>
        <time>2016-05-12T13:22:18+02:00</time>
      </trkpt>
      <trkpt lat="42.99219" lon="0.31832">
        <ele>1223</ele>
        <time>2016-05-12T13:24:24+02:00</time>
      </trkpt>
      <trkpt lat="42.99253" lon="0.318">
        <ele>1222</ele>
        <time>2016-05-12T13:25:15+02:00</time>
      </trkpt>
      <trkpt lat="42.99302" lon="0.31787">
        <ele>1220</ele>
        <time>2016-05-12T13:25:57+02:00</time>
      </trkpt>
      <trkpt lat="42.99351" lon="0.31793">
        <ele>1213</ele>
        <time>2016-05-12T13:26:36+02:00</time>
      </trkpt>
      <trkpt lat="42.99396" lon="0.31786">
        <ele>1207</ele>
        <time>2016-05-12T13:27:27+02:00</time>
      </trkpt>
      <trkpt lat="42.99436" lon="0.31808">
        <ele>1205</ele>
        <time>2016-05-12T13:28:03+02:00</time>
      </trkpt>
      <trkpt lat="42.99459" lon="0.3185">
        <ele>1205</ele>
        <time>2016-05-12T13:28:46+02:00</time>
      </trkpt>
      <trkpt lat="42.99482" lon="0.31898">
        <ele>1198</ele>
        <time>2016-05-12T13:29:24+02:00</time>
      </trkpt>
      <trkpt lat="42.9951" lon="0.3192">
        <ele>1193</ele>
        <time>2016-05-12T13:32:02+02:00</time>
      </trkpt>
      <trkpt lat="42.99542" lon="0.31894">
        <ele>1191</ele>
        <time>2016-05-12T13:32:33+02:00</time>
      </trkpt>
      <trkpt lat="42.99568" lon="0.31853">
        <ele>1188</ele>
        <time>2016-05-12T13:33:06+02:00</time>
      </trkpt>
      <trkpt lat="42.9959" lon="0.31794">
        <ele>1183</ele>
        <time>2016-05-12T13:33:42+02:00</time>
      </trkpt>
      <trkpt lat="42.99608" lon="0.31716">
        <ele>1176</ele>
        <time>2016-05-12T13:34:48+02:00</time>
      </trkpt>
      <trkpt lat="42.99622" lon="0.31642">
        <ele>1170</ele>
        <time>2016-05-12T13:35:32+02:00</time>
      </trkpt>
      <trkpt lat="42.99643" lon="0.31575">
        <ele>1184</ele>
        <time>2016-05-12T13:37:05+02:00</time>
      </trkpt>
      <trkpt lat="42.99652" lon="0.31524">
        <ele>1184</ele>
        <time>2016-05-12T13:38:02+02:00</time>
      </trkpt>
      <trkpt lat="42.99663" lon="0.31475">
        <ele>1184</ele>
        <time>2016-05-12T13:38:34+02:00</time>
      </trkpt>
      <trkpt lat="42.99681" lon="0.31412">
        <ele>1183</ele>
        <time>2016-05-12T13:39:11+02:00</time>
      </trkpt>
      <trkpt lat="42.99704" lon="0.31354">
        <ele>1185</ele>
        <time>2016-05-12T13:40:03+02:00</time>
      </trkpt>
      <trkpt lat="42.99742" lon="0.31358">
        <ele>1175</ele>
        <time>2016-05-12T13:41:15+02:00</time>
      </trkpt>
      <trkpt lat="42.9978" lon="0.31392">
        <ele>1167</ele>
        <time>2016-05-12T13:41:50+02:00</time>
      </trkpt>
      <trkpt lat="42.9982" lon="0.31371">
        <ele>1167</ele>
        <time>2016-05-12T13:42:34+02:00</time>
      </trkpt>
      <trkpt lat="42.99856" lon="0.31376">
        <ele>1162</ele>
        <time>2016-05-12T13:43:08+02:00</time>
      </trkpt>
      <trkpt lat="42.9989" lon="0.31411">
        <ele>1159</ele>
        <time>2016-05-12T13:43:41+02:00</time>
      </trkpt>
      <trkpt lat="42.99926" lon="0.31381">
        <ele>1159</ele>
        <time>2016-05-12T13:44:13+02:00</time>
      </trkpt>
      <trkpt lat="42.99968" lon="0.31376">
        <ele>1155</ele>
        <time>2016-05-12T13:44:46+02:00</time>
      </trkpt>
      <trkpt lat="43.00007" lon="0.31367">
        <ele>1159</ele>
        <time>2016-05-12T13:45:18+02:00</time>
      </trkpt>
      <trkpt lat="43.00042" lon="0.31342">
        <ele>1158</ele>
        <time>2016-05-12T13:45:48+02:00</time>
      </trkpt>
      <trkpt lat="43.00077" lon="0.31338">
        <ele>1159</ele>
        <time>2016-05-12T13:48:02+02:00</time>
      </trkpt>
      <trkpt lat="43.0011" lon="0.31368">
        <ele>1157</ele>
        <time>2016-05-12T13:48:42+02:00</time>
      </trkpt>
      <trkpt lat="43.00108" lon="0.31429">
        <ele>1158</ele>
        <time>2016-05-12T13:49:21+02:00</time>
      </trkpt>
      <trkpt lat="43.00122" lon="0.31488">
        <ele>1147</ele>
        <time>2016-05-12T13:50:15+02:00</time>
      </trkpt>
      <trkpt lat="43.00159" lon="0.31661">
        <ele>1042</ele>
        <time>2016-05-12T13:52:07+02:00</time>
      </trkpt>
      <trkpt lat="43.00154" lon="0.31827">
        <ele>1053</ele>
        <time>2016-05-12T13:54:01+02:00</time>
      </trkpt>
      <trkpt lat="43.00114" lon="0.31955">
        <ele>1148</ele>
        <time>2016-05-12T13:55:33+02:00</time>
      </trkpt>
      <trkpt lat="43.00092" lon="0.32066">
        <ele>1166</ele>
        <time>2016-05-12T13:56:52+02:00</time>
      </trkpt>
      <trkpt lat="43.0007" lon="0.32139">
        <ele>1170</ele>
        <time>2016-05-12T13:57:37+02:00</time>
      </trkpt>
      <trkpt lat="43.00036" lon="0.32192">
        <ele>1161</ele>
        <time>2016-05-12T14:00:28+02:00</time>
      </trkpt>
      <trkpt lat="43.00026" lon="0.32318">
        <ele>1143</ele>
        <time>2016-05-12T14:01:21+02:00</time>
      </trkpt>
      <trkpt lat="43.00022" lon="0.32426">
        <ele>1144</ele>
        <time>2016-05-12T14:02:50+02:00</time>
      </trkpt>
      <trkpt lat="43.00059" lon="0.32516">
        <ele>1115</ele>
        <time>2016-05-12T14:05:01+02:00</time>
      </trkpt>
      <trkpt lat="43.00114" lon="0.32598">
        <ele>1107</ele>
        <time>2016-05-12T14:07:18+02:00</time>
      </trkpt>
      <trkpt lat="43.00171" lon="0.32612">
        <ele>1076</ele>
        <time>2016-05-12T14:10:10+02:00</time>
      </trkpt>
      <trkpt lat="43.00214" lon="0.32491">
        <ele>1040</ele>
        <time>2016-05-12T14:13:42+02:00</time>
      </trkpt>
      <trkpt lat="43.00259" lon="0.32372">
        <ele>1020</ele>
        <time>2016-05-12T14:16:18+02:00</time>
      </trkpt>
      <trkpt lat="43.00319" lon="0.32255">
        <ele>1003</ele>
        <time>2016-05-12T14:18:04+02:00</time>
      </trkpt>
      <trkpt lat="43.0042" lon="0.32135">
        <ele>974</ele>
        <time>2016-05-12T14:20:59+02:00</time>
      </trkpt>
      <trkpt lat="43.0052" lon="0.32016">
        <ele>939</ele>
        <time>2016-05-12T14:24:04+02:00</time>
      </trkpt>
      <trkpt lat="43.00613" lon="0.31921">
        <ele>934</ele>
        <time>2016-05-12T14:30:34+02:00</time>
      </trkpt>
      <trkpt lat="43.00589" lon="0.31969">
        <ele>920</ele>
        <time>2016-05-12T14:31:22+02:00</time>
      </trkpt>
      <trkpt lat="43.00572" lon="0.32019">
        <ele>914</ele>
        <time>2016-05-12T14:31:52+02:00</time>
      </trkpt>
      <trkpt lat="43.00559" lon="0.32076">
        <ele>906</ele>
        <time>2016-05-12T14:32:26+02:00</time>
      </trkpt>
      <trkpt lat="43.00549" lon="0.32138">
        <ele>894</ele>
        <time>2016-05-12T14:33:04+02:00</time>
      </trkpt>
      <trkpt lat="43.00538" lon="0.32203">
        <ele>889</ele>
        <time>2016-05-12T14:33:39+02:00</time>
      </trkpt>
      <trkpt lat="43.00532" lon="0.32258">
        <ele>886</ele>
        <time>2016-05-12T14:34:08+02:00</time>
      </trkpt>
      <trkpt lat="43.00521" lon="0.32311">
        <ele>883</ele>
        <time>2016-05-12T14:34:45+02:00</time>
      </trkpt>
      <trkpt lat="43.00508" lon="0.32365">
        <ele>877</ele>
        <time>2016-05-12T14:35:14+02:00</time>
      </trkpt>
      <trkpt lat="43.00521" lon="0.3242">
        <ele>878</ele>
        <time>2016-05-12T14:35:42+02:00</time>
      </trkpt>
      <trkpt lat="43.00555" lon="0.3243">
        <ele>868</ele>
        <time>2016-05-12T14:36:12+02:00</time>
      </trkpt>
      <trkpt lat="43.00589" lon="0.32448">
        <ele>861</ele>
        <time>2016-05-12T14:36:40+02:00</time>
      </trkpt>
      <trkpt lat="43.00627" lon="0.32447">
        <ele>849</ele>
        <time>2016-05-12T14:37:07+02:00</time>
      </trkpt>
      <trkpt lat="43.00651" lon="0.32481">
        <ele>842</ele>
        <time>2016-05-12T14:37:33+02:00</time>
      </trkpt>
      <trkpt lat="43.00681" lon="0.32508">
        <ele>836</ele>
        <time>2016-05-12T14:37:58+02:00</time>
      </trkpt>
      <trkpt lat="43.00717" lon="0.32516">
        <ele>829</ele>
        <time>2016-05-12T14:38:22+02:00</time>
      </trkpt>
      <trkpt lat="43.00754" lon="0.32529">
        <ele>822</ele>
        <time>2016-05-12T14:38:47+02:00</time>
      </trkpt>
      <trkpt lat="43.00785" lon="0.32554">
        <ele>818</ele>
        <time>2016-05-12T14:39:11+02:00</time>
      </trkpt>
      <trkpt lat="43.00816" lon="0.32578">
        <ele>814</ele>
        <time>2016-05-12T14:39:33+02:00</time>
      </trkpt>
      <trkpt lat="43.00843" lon="0.32588">
        <ele>810</ele>
        <time>2016-05-12T14:40:22+02:00</time>
      </trkpt>
    </trkseg>
  </trk>
</gpx>